sensor_id;sensor_type;location;lat;lon;timestamp;temperature;humidity
12841;DHT22;6487;48.626;12.486;2022-07-03T00:00:15;17.00;98.80
12841;DHT22;6487;48.626;12.486;2022-07-03T00:02:44;17.00;98.70
12841;DHT22;6487;48.626;12.486;2022-07-03T00:05:13;17.00;98.90
12841;DHT22;6487;48.626;12.486;2022-07-03T00:07:41;16.90;98.90
12841;DHT22;6487;48.626;12.486;2022-07-03T00:10:11;16.90;99.10
12841;DHT22;6487;48.626;12.486;2022-07-03T00:12:39;16.80;99.10
12841;DHT22;6487;48.626;12.486;2022-07-03T00:15:08;16.80;99.20
12841;DHT22;6487;48.626;12.486;2022-07-03T00:17:37;16.80;99.30
12841;DHT22;6487;48.626;12.486;2022-07-03T00:20:07;16.70;99.40
12841;DHT22;6487;48.626;12.486;2022-07-03T00:22:39;16.80;99.30
12841;DHT22;6487;48.626;12.486;2022-07-03T00:25:13;16.70;99.50
12841;DHT22;6487;48.626;12.486;2022-07-03T00:27:43;16.70;99.40
12841;DHT22;6487;48.626;12.486;2022-07-03T00:30:12;16.70;99.60
12841;DHT22;6487;48.626;12.486;2022-07-03T00:32:41;16.60;99.50
12841;DHT22;6487;48.626;12.486;2022-07-03T00:35:11;16.60;99.40
12841;DHT22;6487;48.626;12.486;2022-07-03T00:37:44;16.50;99.60
12841;DHT22;6487;48.626;12.486;2022-07-03T00:40:13;16.40;99.90
12841;DHT22;6487;48.626;12.486;2022-07-03T00:42:42;16.40;99.90
12841;DHT22;6487;48.626;12.486;2022-07-03T00:45:12;16.30;99.90
12841;DHT22;6487;48.626;12.486;2022-07-03T00:47:44;16.40;99.90
12841;DHT22;6487;48.626;12.486;2022-07-03T00:50:12;16.30;99.90
12841;DHT22;6487;48.626;12.486;2022-07-03T00:52:46;16.30;99.90
12841;DHT22;6487;48.626;12.486;2022-07-03T00:55:17;16.40;99.90
12841;DHT22;6487;48.626;12.486;2022-07-03T00:57:47;16.40;99.90
12841;DHT22;6487;48.626;12.486;2022-07-03T01:00:17;16.30;99.90
12841;DHT22;6487;48.626;12.486;2022-07-03T01:02:51;16.30;99.90
12841;DHT22;6487;48.626;12.486;2022-07-03T01:05:27;16.30;99.90
12841;DHT22;6487;48.626;12.486;2022-07-03T01:08:12;16.20;99.90
12841;DHT22;6487;48.626;12.486;2022-07-03T01:10:55;16.20;99.90
12841;DHT22;6487;48.626;12.486;2022-07-03T01:13:38;16.20;99.90
12841;DHT22;6487;48.626;12.486;2022-07-03T01:16:25;16.30;99.90
12841;DHT22;6487;48.626;12.486;2022-07-03T01:19:06;16.20;99.90
12841;DHT22;6487;48.626;12.486;2022-07-03T01:21:55;16.20;99.90
12841;DHT22;6487;48.626;12.486;2022-07-03T01:24:43;16.10;99.90
12841;DHT22;6487;48.626;12.486;2022-07-03T01:27:28;16.10;99.90
12841;DHT22;6487;48.626;12.486;2022-07-03T01:30:04;16.10;99.90
12841;DHT22;6487;48.626;12.486;2022-07-03T01:32:38;16.10;99.90
12841;DHT22;6487;48.626;12.486;2022-07-03T01:35:12;16.10;99.90
12841;DHT22;6487;48.626;12.486;2022-07-03T01:37:42;16.10;99.90
12841;DHT22;6487;48.626;12.486;2022-07-03T01:40:11;16.10;99.90
12841;DHT22;6487;48.626;12.486;2022-07-03T01:42:42;16.10;99.90
12841;DHT22;6487;48.626;12.486;2022-07-03T01:45:14;16.10;99.90
12841;DHT22;6487;48.626;12.486;2022-07-03T01:47:46;16.10;99.90
12841;DHT22;6487;48.626;12.486;2022-07-03T01:50:15;16.10;99.90
12841;DHT22;6487;48.626;12.486;2022-07-03T01:52:45;16.10;99.90
12841;DHT22;6487;48.626;12.486;2022-07-03T01:55:16;16.10;99.90
12841;DHT22;6487;48.626;12.486;2022-07-03T01:57:48;16.10;99.90
12841;DHT22;6487;48.626;12.486;2022-07-03T02:00:19;16.10;99.90
12841;DHT22;6487;48.626;12.486;2022-07-03T02:02:56;16.10;99.90
12841;DHT22;6487;48.626;12.486;2022-07-03T02:05:31;16.00;99.90
12841;DHT22;6487;48.626;12.486;2022-07-03T02:08:15;16.00;99.90
12841;DHT22;6487;48.626;12.486;2022-07-03T02:11:01;16.10;99.90
12841;DHT22;6487;48.626;12.486;2022-07-03T02:13:50;16.10;99.90
12841;DHT22;6487;48.626;12.486;2022-07-03T02:16:22;16.00;99.90
12841;DHT22;6487;48.626;12.486;2022-07-03T02:18:57;16.00;99.90
12841;DHT22;6487;48.626;12.486;2022-07-03T02:21:31;15.90;99.90
12841;DHT22;6487;48.626;12.486;2022-07-03T02:24:13;15.90;99.90
12841;DHT22;6487;48.626;12.486;2022-07-03T02:26:54;15.90;99.90
12841;DHT22;6487;48.626;12.486;2022-07-03T02:29:31;15.90;99.90
12841;DHT22;6487;48.626;12.486;2022-07-03T02:32:04;15.90;99.90
12841;DHT22;6487;48.626;12.486;2022-07-03T02:34:35;15.90;99.90
12841;DHT22;6487;48.626;12.486;2022-07-03T02:37:12;15.80;99.90
12841;DHT22;6487;48.626;12.486;2022-07-03T02:39:48;15.70;99.90
12841;DHT22;6487;48.626;12.486;2022-07-03T02:42:25;15.70;99.90
12841;DHT22;6487;48.626;12.486;2022-07-03T02:45:02;15.70;99.90
12841;DHT22;6487;48.626;12.486;2022-07-03T02:47:37;15.70;99.90
12841;DHT22;6487;48.626;12.486;2022-07-03T02:50:18;15.70;99.90
12841;DHT22;6487;48.626;12.486;2022-07-03T02:53:03;15.60;99.90
12841;DHT22;6487;48.626;12.486;2022-07-03T02:55:43;15.70;99.90
12841;DHT22;6487;48.626;12.486;2022-07-03T02:58:53;15.60;99.90
12841;DHT22;6487;48.626;12.486;2022-07-03T03:01:38;15.60;99.90
12841;DHT22;6487;48.626;12.486;2022-07-03T03:04:20;15.60;99.90
12841;DHT22;6487;48.626;12.486;2022-07-03T03:06:54;15.50;99.90
12841;DHT22;6487;48.626;12.486;2022-07-03T03:09:26;15.50;99.90
12841;DHT22;6487;48.626;12.486;2022-07-03T03:12:01;15.50;99.90
12841;DHT22;6487;48.626;12.486;2022-07-03T03:14:37;15.50;99.90
12841;DHT22;6487;48.626;12.486;2022-07-03T03:17:09;15.50;99.90
12841;DHT22;6487;48.626;12.486;2022-07-03T03:19:46;15.50;99.90
12841;DHT22;6487;48.626;12.486;2022-07-03T03:22:26;15.40;99.90
12841;DHT22;6487;48.626;12.486;2022-07-03T03:24:56;15.30;99.90
12841;DHT22;6487;48.626;12.486;2022-07-03T03:27:25;15.40;99.90
12841;DHT22;6487;48.626;12.486;2022-07-03T03:29:55;15.40;99.90
12841;DHT22;6487;48.626;12.486;2022-07-03T03:32:25;15.40;99.90
12841;DHT22;6487;48.626;12.486;2022-07-03T03:34:54;15.40;99.90
12841;DHT22;6487;48.626;12.486;2022-07-03T03:37:22;15.40;99.90
12841;DHT22;6487;48.626;12.486;2022-07-03T03:39:51;15.40;99.90
12841;DHT22;6487;48.626;12.486;2022-07-03T03:42:19;15.40;99.90
12841;DHT22;6487;48.626;12.486;2022-07-03T03:44:48;15.40;99.90
12841;DHT22;6487;48.626;12.486;2022-07-03T03:47:16;15.30;99.90
12841;DHT22;6487;48.626;12.486;2022-07-03T03:49:47;15.30;99.90
12841;DHT22;6487;48.626;12.486;2022-07-03T03:52:15;15.30;99.90
12841;DHT22;6487;48.626;12.486;2022-07-03T03:54:44;15.40;99.90
12841;DHT22;6487;48.626;12.486;2022-07-03T03:57:17;15.30;99.90
12841;DHT22;6487;48.626;12.486;2022-07-03T03:59:46;15.40;99.90
12841;DHT22;6487;48.626;12.486;2022-07-03T04:02:15;15.30;99.90
12841;DHT22;6487;48.626;12.486;2022-07-03T04:04:44;15.30;99.90
12841;DHT22;6487;48.626;12.486;2022-07-03T04:07:14;15.40;99.90
12841;DHT22;6487;48.626;12.486;2022-07-03T04:09:43;15.40;99.90
12841;DHT22;6487;48.626;12.486;2022-07-03T04:12:12;15.40;99.90
12841;DHT22;6487;48.626;12.486;2022-07-03T04:14:40;15.40;99.90
12841;DHT22;6487;48.626;12.486;2022-07-03T04:17:09;15.40;99.90
12841;DHT22;6487;48.626;12.486;2022-07-03T04:19:37;15.50;99.90
12841;DHT22;6487;48.626;12.486;2022-07-03T04:22:06;15.50;99.90
12841;DHT22;6487;48.626;12.486;2022-07-03T04:24:37;15.50;99.90
12841;DHT22;6487;48.626;12.486;2022-07-03T04:27:05;15.50;99.90
12841;DHT22;6487;48.626;12.486;2022-07-03T04:29:34;15.50;99.90
12841;DHT22;6487;48.626;12.486;2022-07-03T04:32:03;15.50;99.90
12841;DHT22;6487;48.626;12.486;2022-07-03T04:34:32;15.50;99.90
12841;DHT22;6487;48.626;12.486;2022-07-03T04:37:00;15.60;99.90
12841;DHT22;6487;48.626;12.486;2022-07-03T04:39:28;15.60;99.90
12841;DHT22;6487;48.626;12.486;2022-07-03T04:41:58;15.70;99.90
12841;DHT22;6487;48.626;12.486;2022-07-03T04:44:26;15.70;99.90
12841;DHT22;6487;48.626;12.486;2022-07-03T04:46:55;15.80;99.90
12841;DHT22;6487;48.626;12.486;2022-07-03T04:49:24;15.80;99.90
12841;DHT22;6487;48.626;12.486;2022-07-03T04:51:52;15.80;99.90
12841;DHT22;6487;48.626;12.486;2022-07-03T04:54:22;15.80;99.90
12841;DHT22;6487;48.626;12.486;2022-07-03T04:56:50;15.90;99.90
12841;DHT22;6487;48.626;12.486;2022-07-03T04:59:20;15.90;99.90
12841;DHT22;6487;48.626;12.486;2022-07-03T05:01:49;16.00;99.90
12841;DHT22;6487;48.626;12.486;2022-07-03T05:04:17;16.00;99.90
12841;DHT22;6487;48.626;12.486;2022-07-03T05:06:46;16.10;99.90
12841;DHT22;6487;48.626;12.486;2022-07-03T05:09:15;16.20;99.90
12841;DHT22;6487;48.626;12.486;2022-07-03T05:11:45;16.20;99.90
12841;DHT22;6487;48.626;12.486;2022-07-03T05:14:14;16.30;99.90
12841;DHT22;6487;48.626;12.486;2022-07-03T05:16:43;16.30;99.90
12841;DHT22;6487;48.626;12.486;2022-07-03T05:19:12;16.30;99.90
12841;DHT22;6487;48.626;12.486;2022-07-03T05:21:40;16.30;99.90
12841;DHT22;6487;48.626;12.486;2022-07-03T05:24:09;16.40;99.90
12841;DHT22;6487;48.626;12.486;2022-07-03T05:26:38;16.40;99.90
12841;DHT22;6487;48.626;12.486;2022-07-03T05:29:07;16.50;99.90
12841;DHT22;6487;48.626;12.486;2022-07-03T05:31:35;16.60;99.90
12841;DHT22;6487;48.626;12.486;2022-07-03T05:34:05;16.60;99.90
12841;DHT22;6487;48.626;12.486;2022-07-03T05:36:33;16.70;99.90
12841;DHT22;6487;48.626;12.486;2022-07-03T05:39:01;16.80;99.90
12841;DHT22;6487;48.626;12.486;2022-07-03T05:41:47;16.90;99.90
12841;DHT22;6487;48.626;12.486;2022-07-03T05:44:16;17.00;99.90
12841;DHT22;6487;48.626;12.486;2022-07-03T05:46:44;17.00;99.90
12841;DHT22;6487;48.626;12.486;2022-07-03T05:49:14;17.10;99.90
12841;DHT22;6487;48.626;12.486;2022-07-03T05:51:42;17.20;99.90
12841;DHT22;6487;48.626;12.486;2022-07-03T05:54:11;17.30;99.90
12841;DHT22;6487;48.626;12.486;2022-07-03T05:56:39;17.40;99.90
12841;DHT22;6487;48.626;12.486;2022-07-03T05:59:07;17.50;99.90
12841;DHT22;6487;48.626;12.486;2022-07-03T06:01:36;17.60;99.90
12841;DHT22;6487;48.626;12.486;2022-07-03T06:04:04;17.60;99.90
12841;DHT22;6487;48.626;12.486;2022-07-03T06:06:34;17.70;99.90
12841;DHT22;6487;48.626;12.486;2022-07-03T06:09:03;17.90;99.90
12841;DHT22;6487;48.626;12.486;2022-07-03T06:11:32;18.00;99.90
12841;DHT22;6487;48.626;12.486;2022-07-03T06:14:00;18.10;99.90
12841;DHT22;6487;48.626;12.486;2022-07-03T06:16:29;18.20;99.90
12841;DHT22;6487;48.626;12.486;2022-07-03T06:18:57;18.40;99.90
12841;DHT22;6487;48.626;12.486;2022-07-03T06:21:26;18.60;99.90
12841;DHT22;6487;48.626;12.486;2022-07-03T06:23:57;18.70;99.90
12841;DHT22;6487;48.626;12.486;2022-07-03T06:26:26;18.90;99.90
12841;DHT22;6487;48.626;12.486;2022-07-03T06:28:55;19.00;99.90
12841;DHT22;6487;48.626;12.486;2022-07-03T06:31:24;19.20;99.90
12841;DHT22;6487;48.626;12.486;2022-07-03T06:33:52;19.20;99.90
12841;DHT22;6487;48.626;12.486;2022-07-03T06:36:21;19.30;99.90
12841;DHT22;6487;48.626;12.486;2022-07-03T06:38:49;19.50;99.90
12841;DHT22;6487;48.626;12.486;2022-07-03T06:41:19;19.70;99.90
12841;DHT22;6487;48.626;12.486;2022-07-03T06:43:47;19.90;99.90
12841;DHT22;6487;48.626;12.486;2022-07-03T06:46:15;19.90;99.90
12841;DHT22;6487;48.626;12.486;2022-07-03T06:48:44;20.00;99.90
12841;DHT22;6487;48.626;12.486;2022-07-03T06:51:12;20.10;99.90
12841;DHT22;6487;48.626;12.486;2022-07-03T06:53:43;20.30;99.90
12841;DHT22;6487;48.626;12.486;2022-07-03T06:56:11;20.40;99.60
12841;DHT22;6487;48.626;12.486;2022-07-03T06:58:41;20.60;99.90
12841;DHT22;6487;48.626;12.486;2022-07-03T07:01:09;20.70;99.90
12841;DHT22;6487;48.626;12.486;2022-07-03T07:03:38;20.80;99.90
12841;DHT22;6487;48.626;12.486;2022-07-03T07:06:06;21.00;99.90
12841;DHT22;6487;48.626;12.486;2022-07-03T07:08:35;21.00;99.30
12841;DHT22;6487;48.626;12.486;2022-07-03T07:11:03;21.10;99.50
12841;DHT22;6487;48.626;12.486;2022-07-03T07:13:32;21.20;98.80
12841;DHT22;6487;48.626;12.486;2022-07-03T07:16:01;21.40;99.30
12841;DHT22;6487;48.626;12.486;2022-07-03T07:18:30;21.60;99.80
12841;DHT22;6487;48.626;12.486;2022-07-03T07:20:58;21.70;99.80
12841;DHT22;6487;48.626;12.486;2022-07-03T07:23:26;21.90;99.00
12841;DHT22;6487;48.626;12.486;2022-07-03T07:25:55;22.20;98.80
12841;DHT22;6487;48.626;12.486;2022-07-03T07:28:23;22.30;98.00
12841;DHT22;6487;48.626;12.486;2022-07-03T07:30:51;22.40;98.30
12841;DHT22;6487;48.626;12.486;2022-07-03T07:33:23;22.60;97.90
12841;DHT22;6487;48.626;12.486;2022-07-03T07:35:52;22.80;97.00
12841;DHT22;6487;48.626;12.486;2022-07-03T07:38:20;22.90;97.40
12841;DHT22;6487;48.626;12.486;2022-07-03T07:40:48;23.00;97.00
12841;DHT22;6487;48.626;12.486;2022-07-03T07:43:17;23.20;97.70
12841;DHT22;6487;48.626;12.486;2022-07-03T07:45:45;23.30;96.30
12841;DHT22;6487;48.626;12.486;2022-07-03T07:48:14;23.40;97.20
12841;DHT22;6487;48.626;12.486;2022-07-03T07:50:43;23.50;96.50
12841;DHT22;6487;48.626;12.486;2022-07-03T07:53:12;23.70;96.70
12841;DHT22;6487;48.626;12.486;2022-07-03T07:55:40;23.60;96.50
12841;DHT22;6487;48.626;12.486;2022-07-03T07:58:09;23.70;95.60
12841;DHT22;6487;48.626;12.486;2022-07-03T08:00:37;23.90;96.20
12841;DHT22;6487;48.626;12.486;2022-07-03T08:03:26;24.00;94.90
12841;DHT22;6487;48.626;12.486;2022-07-03T08:06:13;24.00;95.10
12841;DHT22;6487;48.626;12.486;2022-07-03T08:08:42;24.20;95.50
12841;DHT22;6487;48.626;12.486;2022-07-03T08:11:10;24.40;94.80
12841;DHT22;6487;48.626;12.486;2022-07-03T08:13:38;24.60;95.20
12841;DHT22;6487;48.626;12.486;2022-07-03T08:16:07;24.70;94.00
12841;DHT22;6487;48.626;12.486;2022-07-03T08:18:35;24.80;93.50
12841;DHT22;6487;48.626;12.486;2022-07-03T08:21:09;24.90;93.90
12841;DHT22;6487;48.626;12.486;2022-07-03T08:23:39;25.10;94.80
12841;DHT22;6487;48.626;12.486;2022-07-03T08:26:07;25.20;94.60
12841;DHT22;6487;48.626;12.486;2022-07-03T08:28:36;25.40;94.20
12841;DHT22;6487;48.626;12.486;2022-07-03T08:31:04;25.40;93.80
12841;DHT22;6487;48.626;12.486;2022-07-03T08:33:33;25.70;94.10
12841;DHT22;6487;48.626;12.486;2022-07-03T08:36:04;25.70;93.20
12841;DHT22;6487;48.626;12.486;2022-07-03T08:38:34;25.90;92.60
12841;DHT22;6487;48.626;12.486;2022-07-03T08:41:04;26.00;93.20
12841;DHT22;6487;48.626;12.486;2022-07-03T08:43:33;26.20;93.40
12841;DHT22;6487;48.626;12.486;2022-07-03T08:46:02;26.30;93.10
12841;DHT22;6487;48.626;12.486;2022-07-03T08:48:32;26.30;93.20
12841;DHT22;6487;48.626;12.486;2022-07-03T08:51:02;26.50;93.50
12841;DHT22;6487;48.626;12.486;2022-07-03T08:53:30;26.60;92.90
12841;DHT22;6487;48.626;12.486;2022-07-03T08:56:00;26.80;92.90
12841;DHT22;6487;48.626;12.486;2022-07-03T08:58:32;26.80;91.90
12841;DHT22;6487;48.626;12.486;2022-07-03T09:01:00;26.80;92.60
12841;DHT22;6487;48.626;12.486;2022-07-03T09:03:31;27.00;93.10
12841;DHT22;6487;48.626;12.486;2022-07-03T09:06:00;27.20;92.60
12841;DHT22;6487;48.626;12.486;2022-07-03T09:08:30;27.30;92.40
12841;DHT22;6487;48.626;12.486;2022-07-03T09:11:00;27.60;91.50
12841;DHT22;6487;48.626;12.486;2022-07-03T09:13:30;27.70;92.20
12841;DHT22;6487;48.626;12.486;2022-07-03T09:15:58;27.60;91.80
12841;DHT22;6487;48.626;12.486;2022-07-03T09:18:37;27.70;90.30
12841;DHT22;6487;48.626;12.486;2022-07-03T09:21:07;27.80;91.10
12841;DHT22;6487;48.626;12.486;2022-07-03T09:23:38;27.90;91.50
12841;DHT22;6487;48.626;12.486;2022-07-03T09:26:12;28.20;90.70
12841;DHT22;6487;48.626;12.486;2022-07-03T09:28:44;28.20;91.00
12841;DHT22;6487;48.626;12.486;2022-07-03T09:31:16;28.30;91.30
12841;DHT22;6487;48.626;12.486;2022-07-03T09:33:54;28.50;91.30
12841;DHT22;6487;48.626;12.486;2022-07-03T09:36:36;28.60;90.30
12841;DHT22;6487;48.626;12.486;2022-07-03T09:39:17;28.70;90.50
12841;DHT22;6487;48.626;12.486;2022-07-03T09:41:55;28.80;90.00
12841;DHT22;6487;48.626;12.486;2022-07-03T09:44:34;29.00;89.50
12841;DHT22;6487;48.626;12.486;2022-07-03T09:47:08;29.00;90.30
12841;DHT22;6487;48.626;12.486;2022-07-03T09:49:51;29.10;88.00
12841;DHT22;6487;48.626;12.486;2022-07-03T09:52:29;29.10;87.20
12841;DHT22;6487;48.626;12.486;2022-07-03T09:55:02;29.20;87.80
12841;DHT22;6487;48.626;12.486;2022-07-03T09:57:42;29.30;87.10
12841;DHT22;6487;48.626;12.486;2022-07-03T10:00:15;29.40;89.00
12841;DHT22;6487;48.626;12.486;2022-07-03T10:02:58;29.40;86.40
12841;DHT22;6487;48.626;12.486;2022-07-03T10:05:29;29.60;84.40
12841;DHT22;6487;48.626;12.486;2022-07-03T10:07:59;29.60;86.60
12841;DHT22;6487;48.626;12.486;2022-07-03T10:10:30;29.70;85.30
12841;DHT22;6487;48.626;12.486;2022-07-03T10:13:00;29.70;86.30
12841;DHT22;6487;48.626;12.486;2022-07-03T10:15:32;29.80;84.20
12841;DHT22;6487;48.626;12.486;2022-07-03T10:18:04;30.00;86.20
12841;DHT22;6487;48.626;12.486;2022-07-03T10:20:35;30.00;87.20
12841;DHT22;6487;48.626;12.486;2022-07-03T10:23:07;30.20;86.50
12841;DHT22;6487;48.626;12.486;2022-07-03T10:25:37;30.20;84.10
12841;DHT22;6487;48.626;12.486;2022-07-03T10:28:12;30.30;85.00
12841;DHT22;6487;48.626;12.486;2022-07-03T10:30:44;30.20;84.10
12841;DHT22;6487;48.626;12.486;2022-07-03T10:33:13;30.40;81.80
12841;DHT22;6487;48.626;12.486;2022-07-03T10:35:44;30.50;83.80
12841;DHT22;6487;48.626;12.486;2022-07-03T10:38:35;30.70;85.60
12841;DHT22;6487;48.626;12.486;2022-07-03T10:41:11;30.70;81.80
12841;DHT22;6487;48.626;12.486;2022-07-03T10:44:06;30.50;79.40
12841;DHT22;6487;48.626;12.486;2022-07-03T10:46:53;30.70;82.60
12841;DHT22;6487;48.626;12.486;2022-07-03T10:49:28;30.70;80.60
12841;DHT22;6487;48.626;12.486;2022-07-03T10:51:57;30.80;81.50
12841;DHT22;6487;48.626;12.486;2022-07-03T10:54:28;30.80;79.80
12841;DHT22;6487;48.626;12.486;2022-07-03T10:57:17;31.00;80.20
12841;DHT22;6487;48.626;12.486;2022-07-03T11:00:04;31.10;77.90
12841;DHT22;6487;48.626;12.486;2022-07-03T11:02:42;31.00;78.20
12841;DHT22;6487;48.626;12.486;2022-07-03T11:05:17;31.10;78.40
12841;DHT22;6487;48.626;12.486;2022-07-03T11:08:11;31.10;76.20
12841;DHT22;6487;48.626;12.486;2022-07-03T11:10:41;31.30;75.50
12841;DHT22;6487;48.626;12.486;2022-07-03T11:13:16;31.40;74.60
12841;DHT22;6487;48.626;12.486;2022-07-03T11:15:50;31.50;74.10
12841;DHT22;6487;48.626;12.486;2022-07-03T11:18:30;31.50;69.70
12841;DHT22;6487;48.626;12.486;2022-07-03T11:27:13;31.70;68.50
12841;DHT22;6487;48.626;12.486;2022-07-03T11:29:54;31.70;69.90
12841;DHT22;6487;48.626;12.486;2022-07-03T11:32:50;31.70;72.90
12841;DHT22;6487;48.626;12.486;2022-07-03T11:35:47;31.70;74.50
12841;DHT22;6487;48.626;12.486;2022-07-03T11:38:21;31.70;65.20
12841;DHT22;6487;48.626;12.486;2022-07-03T11:40:52;31.70;66.30
12841;DHT22;6487;48.626;12.486;2022-07-03T11:43:23;31.90;69.50
12841;DHT22;6487;48.626;12.486;2022-07-03T11:45:52;31.90;67.80
12841;DHT22;6487;48.626;12.486;2022-07-03T11:48:22;32.10;71.90
12841;DHT22;6487;48.626;12.486;2022-07-03T11:50:59;32.30;72.30
12841;DHT22;6487;48.626;12.486;2022-07-03T11:53:30;32.40;68.50
12841;DHT22;6487;48.626;12.486;2022-07-03T11:56:01;32.50;71.50
12841;DHT22;6487;48.626;12.486;2022-07-03T11:58:43;32.40;67.50
12841;DHT22;6487;48.626;12.486;2022-07-03T12:01:28;32.50;72.70
12841;DHT22;6487;48.626;12.486;2022-07-03T12:04:07;32.50;69.80
12841;DHT22;6487;48.626;12.486;2022-07-03T12:06:40;32.70;72.70
12841;DHT22;6487;48.626;12.486;2022-07-03T12:09:17;32.80;67.00
12841;DHT22;6487;48.626;12.486;2022-07-03T12:11:58;32.50;65.00
12841;DHT22;6487;48.626;12.486;2022-07-03T12:14:38;32.70;70.00
12841;DHT22;6487;48.626;12.486;2022-07-03T12:17:10;32.50;65.40
12841;DHT22;6487;48.626;12.486;2022-07-03T12:19:44;32.60;70.70
12841;DHT22;6487;48.626;12.486;2022-07-03T12:22:24;32.90;69.70
12841;DHT22;6487;48.626;12.486;2022-07-03T12:25:00;32.80;64.20
12841;DHT22;6487;48.626;12.486;2022-07-03T12:27:29;32.80;67.90
12841;DHT22;6487;48.626;12.486;2022-07-03T12:29:59;32.80;63.60
12841;DHT22;6487;48.626;12.486;2022-07-03T12:32:28;32.90;69.10
12841;DHT22;6487;48.626;12.486;2022-07-03T12:34:57;33.00;68.00
12841;DHT22;6487;48.626;12.486;2022-07-03T12:37:34;32.90;62.50
12841;DHT22;6487;48.626;12.486;2022-07-03T12:40:05;32.90;65.20
12841;DHT22;6487;48.626;12.486;2022-07-03T12:42:43;32.70;64.00
12841;DHT22;6487;48.626;12.486;2022-07-03T12:45:13;32.90;70.40
12841;DHT22;6487;48.626;12.486;2022-07-03T12:47:43;33.00;63.00
12841;DHT22;6487;48.626;12.486;2022-07-03T12:50:13;33.00;65.60
12841;DHT22;6487;48.626;12.486;2022-07-03T12:52:51;33.10;65.10
12841;DHT22;6487;48.626;12.486;2022-07-03T12:55:25;33.30;66.70
12841;DHT22;6487;48.626;12.486;2022-07-03T12:58:13;33.30;65.60
12841;DHT22;6487;48.626;12.486;2022-07-03T13:01:00;33.40;62.60
12841;DHT22;6487;48.626;12.486;2022-07-03T13:03:31;33.30;67.50
12841;DHT22;6487;48.626;12.486;2022-07-03T13:06:12;33.20;64.40
12841;DHT22;6487;48.626;12.486;2022-07-03T13:08:51;33.30;62.40
12841;DHT22;6487;48.626;12.486;2022-07-03T13:11:30;33.10;60.10
12841;DHT22;6487;48.626;12.486;2022-07-03T13:14:05;33.20;66.20
12841;DHT22;6487;48.626;12.486;2022-07-03T13:16:43;33.10;67.80
12841;DHT22;6487;48.626;12.486;2022-07-03T13:19:13;32.90;58.10
12841;DHT22;6487;48.626;12.486;2022-07-03T13:21:42;33.00;63.10
12841;DHT22;6487;48.626;12.486;2022-07-03T13:24:14;33.00;63.00
12841;DHT22;6487;48.626;12.486;2022-07-03T13:26:44;33.10;63.20
12841;DHT22;6487;48.626;12.486;2022-07-03T13:29:19;32.80;62.40
12841;DHT22;6487;48.626;12.486;2022-07-03T13:31:47;33.00;63.20
12841;DHT22;6487;48.626;12.486;2022-07-03T13:34:17;33.10;58.60
12841;DHT22;6487;48.626;12.486;2022-07-03T13:36:46;33.10;59.50
12841;DHT22;6487;48.626;12.486;2022-07-03T13:39:17;33.10;62.20
12841;DHT22;6487;48.626;12.486;2022-07-03T13:41:45;33.20;64.80
12841;DHT22;6487;48.626;12.486;2022-07-03T13:44:14;33.20;60.30
12841;DHT22;6487;48.626;12.486;2022-07-03T13:46:43;33.40;60.50
12841;DHT22;6487;48.626;12.486;2022-07-03T13:49:17;33.40;62.50
12841;DHT22;6487;48.626;12.486;2022-07-03T13:51:46;33.40;61.90
12841;DHT22;6487;48.626;12.486;2022-07-03T13:54:16;33.40;57.20
12841;DHT22;6487;48.626;12.486;2022-07-03T13:56:45;33.40;61.70
12841;DHT22;6487;48.626;12.486;2022-07-03T13:59:14;33.40;61.00
12841;DHT22;6487;48.626;12.486;2022-07-03T14:01:42;33.30;59.50
12841;DHT22;6487;48.626;12.486;2022-07-03T14:04:11;33.30;63.20
12841;DHT22;6487;48.626;12.486;2022-07-03T14:06:39;33.30;60.70
12841;DHT22;6487;48.626;12.486;2022-07-03T14:09:08;33.30;61.90
12841;DHT22;6487;48.626;12.486;2022-07-03T14:11:38;33.30;60.40
12841;DHT22;6487;48.626;12.486;2022-07-03T14:14:07;33.40;58.00
12841;DHT22;6487;48.626;12.486;2022-07-03T14:16:35;33.30;58.50
12841;DHT22;6487;48.626;12.486;2022-07-03T14:19:04;33.50;58.70
12841;DHT22;6487;48.626;12.486;2022-07-03T14:21:34;33.40;59.80
12841;DHT22;6487;48.626;12.486;2022-07-03T14:24:03;33.40;60.80
12841;DHT22;6487;48.626;12.486;2022-07-03T14:26:32;33.60;63.40
12841;DHT22;6487;48.626;12.486;2022-07-03T14:29:19;33.40;63.60
12841;DHT22;6487;48.626;12.486;2022-07-03T14:32:06;33.50;56.10
12841;DHT22;6487;48.626;12.486;2022-07-03T14:34:52;33.40;60.90
12841;DHT22;6487;48.626;12.486;2022-07-03T14:37:21;33.50;60.90
12841;DHT22;6487;48.626;12.486;2022-07-03T14:39:50;33.50;62.00
12841;DHT22;6487;48.626;12.486;2022-07-03T14:42:19;33.50;55.30
12841;DHT22;6487;48.626;12.486;2022-07-03T14:44:49;33.30;56.00
12841;DHT22;6487;48.626;12.486;2022-07-03T14:47:21;33.30;58.30
12841;DHT22;6487;48.626;12.486;2022-07-03T14:49:49;33.10;54.40
12841;DHT22;6487;48.626;12.486;2022-07-03T14:52:18;33.30;60.60
12841;DHT22;6487;48.626;12.486;2022-07-03T14:57:24;33.50;57.10
12841;DHT22;6487;48.626;12.486;2022-07-03T15:00:02;33.00;58.00
12841;DHT22;6487;48.626;12.486;2022-07-03T15:02:44;33.00;60.10
12841;DHT22;6487;48.626;12.486;2022-07-03T15:05:16;33.00;59.20
12841;DHT22;6487;48.626;12.486;2022-07-03T15:07:54;32.80;62.40
12841;DHT22;6487;48.626;12.486;2022-07-03T15:10:32;32.80;63.40
12841;DHT22;6487;48.626;12.486;2022-07-03T15:13:03;33.00;63.40
12841;DHT22;6487;48.626;12.486;2022-07-03T15:15:34;33.10;60.80
12841;DHT22;6487;48.626;12.486;2022-07-03T15:18:06;33.20;60.00
12841;DHT22;6487;48.626;12.486;2022-07-03T15:20:37;33.00;61.20
12841;DHT22;6487;48.626;12.486;2022-07-03T15:23:06;33.10;62.30
12841;DHT22;6487;48.626;12.486;2022-07-03T15:25:37;33.20;62.10
12841;DHT22;6487;48.626;12.486;2022-07-03T15:28:09;33.00;60.80
12841;DHT22;6487;48.626;12.486;2022-07-03T15:30:46;32.90;63.20
12841;DHT22;6487;48.626;12.486;2022-07-03T15:33:15;33.00;65.60
12841;DHT22;6487;48.626;12.486;2022-07-03T15:35:48;33.00;64.40
12841;DHT22;6487;48.626;12.486;2022-07-03T15:38:21;33.00;66.30
12841;DHT22;6487;48.626;12.486;2022-07-03T15:40:58;33.00;63.50
12841;DHT22;6487;48.626;12.486;2022-07-03T15:43:56;33.00;60.40
12841;DHT22;6487;48.626;12.486;2022-07-03T15:46:39;33.10;67.40
12841;DHT22;6487;48.626;12.486;2022-07-03T15:49:24;33.00;63.50
12841;DHT22;6487;48.626;12.486;2022-07-03T15:52:16;33.10;64.80
12841;DHT22;6487;48.626;12.486;2022-07-03T15:54:57;33.00;65.30
12841;DHT22;6487;48.626;12.486;2022-07-03T15:57:33;33.00;66.80
12841;DHT22;6487;48.626;12.486;2022-07-03T16:00:07;32.80;64.20
12841;DHT22;6487;48.626;12.486;2022-07-03T16:02:48;32.80;66.60
12841;DHT22;6487;48.626;12.486;2022-07-03T16:05:31;32.90;64.10
12841;DHT22;6487;48.626;12.486;2022-07-03T16:08:04;33.00;65.60
12841;DHT22;6487;48.626;12.486;2022-07-03T16:10:34;32.80;66.30
12841;DHT22;6487;48.626;12.486;2022-07-03T16:13:04;32.70;67.70